Time;durP1;ratioP1;P1;durP2;ratioP2;P2;SDS_P1;SDS_P2;PMS_P1;PMS_P2;Temp;Humidity;BMP_temperature;BMP_pressure;BME280_temperature;BME280_humidity;BME280_pressure;Samples;Min_cycle;Max_cycle;Signal;HPM_P1;HPM_P2
2022/04/15 00:01:41;;;;;;;0.10;0.10;;;;;;;12.88;100.00;100867.28;5036850;28;20208;-76
2022/04/15 00:04:09;;;;;;;0.10;0.10;;;;;;;12.84;100.00;100863.72;5044723;28;20686;-76
2022/04/15 00:06:37;;;;;;;0.10;0.10;;;;;;;12.88;100.00;100875.25;5047083;28;20207;-76
2022/04/15 00:09:06;;;;;;;0.22;0.22;;;;;;;12.88;100.00;100873.47;5032991;28;20241;-77
2022/04/15 00:11:34;;;;;;;0.10;0.10;;;;;;;12.73;100.00;100861.00;5039839;28;20210;-77
2022/04/15 00:14:04;;;;;;;0.10;0.10;;;;;;;12.81;100.00;100872.53;5044657;28;20678;-77
2022/04/15 00:16:32;;;;;;;0.40;0.38;;;;;;;12.79;100.00;100871.66;5042243;28;20214;-77
2022/04/15 00:19:01;;;;;;;0.10;0.10;;;;;;;12.89;100.00;100883.22;5040425;28;20219;-77
2022/04/15 00:21:29;;;;;;;0.20;0.20;;;;;;;12.91;100.00;100872.59;5043836;28;20206;-77
2022/04/15 00:23:57;;;;;;;0.10;0.10;;;;;;;12.98;100.00;100882.38;5040918;28;20238;-76
2022/04/15 00:26:25;;;;;;;0.10;0.10;;;;;;;12.95;100.00;100872.63;5042833;28;20215;-76
2022/04/15 00:28:54;;;;;;;0.10;0.10;;;;;;;12.96;100.00;100877.06;5039571;28;20227;-76
2022/04/15 00:31:23;;;;;;;0.10;0.10;;;;;;;12.87;100.00;100874.34;5040252;28;20238;-76
2022/04/15 00:34:03;;;;;;;0.10;0.10;;;12.60;99.90;;;12.86;100.00;100869.03;5042095;28;20202;-76
2022/04/15 00:36:31;;;;;;;0.10;0.10;;;;;;;13.05;100.00;100893.09;5041406;28;20209;-76
2022/04/15 00:38:59;;;;;;;0.20;0.20;;;;;;;12.94;100.00;100880.59;5022884;28;20219;-77
2022/04/15 00:41:28;;;;;;;0.10;0.10;;;;;;;12.93;100.00;100881.47;5030788;28;20666;-76
2022/04/15 00:43:58;;;;;;;0.10;0.10;;;;;;;12.95;100.00;100877.06;5041872;28;20703;-76
2022/04/15 00:46:26;;;;;;;0.10;0.10;;;;;;;12.90;100.00;100873.47;5043384;28;20214;-77
2022/04/15 00:48:54;;;;;;;0.20;0.20;;;;;;;12.88;100.00;100877.88;5042187;28;20226;-76
2022/04/15 00:51:28;;;;;;;0.10;0.10;;;12.60;99.90;;;12.96;100.00;100884.13;5038291;28;20205;-76
2022/04/15 00:53:59;;;;;;;0.10;0.10;;;12.60;99.90;;;12.87;100.00;100868.16;5016411;28;20207;-76
2022/04/15 00:56:29;;;;;;;0.10;0.10;;;;;;;12.84;100.00;100869.03;5022050;28;20211;-76
2022/04/15 00:59:00;;;;;;;0.20;0.20;;;12.60;99.90;;;12.80;100.00;100864.56;5031581;28;20242;-76
2022/04/15 01:01:28;;;;;;;0.15;0.15;;;;;;;13.02;100.00;100879.78;5026978;28;20211;-76
2022/04/15 01:03:57;;;;;;;0.32;0.32;;;;;;;12.79;100.00;100860.13;5030244;28;20231;-77
2022/04/15 01:06:30;;;;;;;0.10;0.10;;;12.60;99.90;;;12.73;100.00;100871.59;5024779;28;20206;-77
2022/04/15 01:09:02;;;;;;;0.10;0.10;;;12.50;99.90;;;12.81;100.00;100884.94;5004425;28;20227;-77
2022/04/15 01:11:33;;;;;;;0.10;0.10;;;12.50;99.90;;;12.86;100.00;100884.97;5044942;28;20211;-77
2022/04/15 01:14:02;;;;;;;0.10;0.10;;;12.50;99.90;;;12.79;100.00;100887.56;5040867;28;20204;-77
2022/04/15 01:16:32;;;;;;;0.13;0.13;;;;;;;12.89;100.00;100887.63;5039690;28;20206;-77
2022/04/15 01:19:01;;;;;;;0.10;0.10;;;;;;;12.83;100.00;100888.47;5027539;28;20231;-77
2022/04/15 01:21:32;;;;;;;0.20;0.20;;;12.50;99.90;;;12.96;100.00;100897.41;5041235;28;20223;-77
2022/04/15 01:24:00;;;;;;;0.10;0.10;;;;;;;12.87;100.00;100882.31;5027204;28;20229;-77
2022/04/15 01:26:28;;;;;;;0.10;0.10;;;;;;;12.81;100.00;100877.84;5045252;28;20206;-77
2022/04/15 01:28:57;;;;;;;0.10;0.10;;;;;;;12.88;100.00;100884.09;5029708;28;20237;-77
2022/04/15 01:31:29;;;;;;;0.10;0.10;;;12.50;99.90;;;12.84;100.00;100895.56;5037729;28;20212;-78
2022/04/15 01:33:59;;;;;;;0.20;0.20;;;12.50;99.90;;;12.86;100.00;100893.81;5045639;28;20215;-77
2022/04/15 01:36:27;;;;;;;0.17;0.17;;;;;;;12.75;100.00;100893.72;5043392;28;20211;-77
2022/04/15 01:38:57;;;;;;;0.10;0.10;;;12.50;99.90;;;12.65;100.00;100888.34;5029983;28;20222;-77
2022/04/15 01:41:25;;;;;;;0.10;0.10;;;;;;;12.59;100.00;100893.59;5020778;28;20211;-77
2022/04/15 01:43:53;;;;;;;0.10;0.10;;;;;;;12.58;100.00;100903.31;5026818;28;20206;-77
2022/04/15 01:46:22;;;;;;;0.10;0.10;;;;;;;12.41;100.00;100891.69;5027699;28;20217;-77
2022/04/15 01:48:50;;;;;;;0.10;0.10;;;;;;;12.40;100.00;100906.72;5038463;28;20219;-77
2022/04/15 01:51:18;;;;;;;0.10;0.10;;;;;;;12.31;100.00;100903.97;5039320;28;20210;-77
2022/04/15 01:53:46;;;;;;;0.10;0.10;;;;;;;12.28;100.00;100916.31;5036634;28;20202;-77
2022/04/15 01:56:14;;;;;;;0.10;0.10;;;;;;;12.20;100.00;100912.69;5038903;28;20203;-77
2022/04/15 01:58:42;;;;;;;0.10;0.10;;;;;;;12.17;100.00;100921.50;5005957;28;20235;-76
2022/04/15 02:01:11;;;;;;;0.10;0.10;;;;;;;12.03;100.00;100910.75;5042025;28;20222;-76
2022/04/15 02:03:39;;;;;;;0.20;0.20;;;;;;;12.09;100.00;100931.16;5042009;28;20206;-76
2022/04/15 02:06:07;;;;;;;0.10;0.10;;;;;;;12.21;100.00;100936.59;5054255;28;20227;-76
2022/04/15 02:08:35;;;;;;;0.15;0.15;;;;;;;12.14;100.00;100932.09;5041247;28;20237;-76
2022/04/15 02:11:03;;;;;;;0.20;0.20;;;;;;;12.06;100.00;100939.06;5048054;28;20199;-76
2022/04/15 02:13:31;;;;;;;0.20;0.20;;;;;;;12.10;100.00;100957.69;5040985;28;20214;-76
2022/04/15 02:16:00;;;;;;;0.10;0.10;;;;;;;12.07;100.00;100943.50;5047843;28;20210;-76
2022/04/15 02:18:28;;;;;;;0.10;0.10;;;;;;;12.04;100.00;100951.41;5041468;28;20235;-76
2022/04/15 02:20:56;;;;;;;0.10;0.10;;;;;;;11.96;100.00;100942.50;5040174;28;20222;-78
2022/04/15 02:23:24;;;;;;;0.10;0.10;;;;;;;12.02;100.00;100961.13;5042182;28;20219;-77
2022/04/15 02:25:52;;;;;;;0.10;0.10;;;;;;;12.02;100.00;100961.13;5045341;28;20238;-77
2022/04/15 02:28:21;;;;;;;0.10;0.10;;;;;;;11.96;100.00;100955.75;5003329;28;20214;-76
2022/04/15 02:30:49;;;;;;;0.10;0.10;;;;;;;11.50;100.00;100947.16;5034857;28;20215;-76
2022/04/15 02:33:17;;;;;;;1.10;0.52;;;;;;;11.15;100.00;100974.03;5040283;28;20222;-76
2022/04/15 02:35:45;;;;;;;0.10;0.10;;;;;;;10.98;100.00;101001.97;5036254;28;20211;-76
2022/04/15 02:38:13;;;;;;;0.20;0.20;;;;;;;10.98;100.00;101022.25;5022593;28;20210;-76
2022/04/15 02:40:42;;;;;;;0.20;0.20;;;;;;;10.86;100.00;101037.06;5040636;28;20214;-76
2022/04/15 02:43:11;;;;;;;0.10;0.10;;;11.20;99.90;;;10.67;100.00;101042.00;5036699;28;20210;-76
2022/04/15 02:45:39;;;;;;;0.10;0.10;;;;;;;10.32;100.00;101038.66;5026870;28;20602;-76
2022/04/15 02:48:07;;;;;;;0.17;0.17;;;10.90;99.90;;;10.41;100.00;101068.84;5022815;28;20195;-76
2022/04/15 02:50:36;;;;;;;1.33;0.90;;;;;;;10.63;100.00;101086.03;5022800;28;20203;-77
2022/04/15 02:53:04;;;;;;;0.10;0.10;;;;;;;10.69;100.00;101090.53;5024672;28;20195;-76
2022/04/15 02:55:33;;;;;;;0.10;0.10;;;;;;;10.64;100.00;101076.34;5039278;28;20206;-76
2022/04/15 02:58:01;;;;;;;0.10;0.10;;;;;;;10.78;100.00;101101.28;5039940;28;20567;-76
2022/04/15 03:00:29;;;;;;;0.10;0.10;;;;;;;10.69;100.00;101106.41;5047295;28;20207;-76
2022/04/15 03:02:57;;;;;;;0.10;0.10;;;;;;;10.70;100.00;101110.84;5041349;28;20203;-76
2022/04/15 03:05:25;;;;;;;0.10;0.10;;;;;;;10.69;100.00;101119.63;5036113;28;20237;-76
2022/04/15 03:07:54;;;;;;;0.20;0.20;;;;;;;10.59;100.00;101118.56;5041449;28;20202;-77
2022/04/15 03:10:22;;;;;;;0.10;0.10;;;10.80;99.90;;;10.50;100.00;101127.22;5038449;28;20226;-77
2022/04/15 03:12:50;;;;;;;0.10;0.10;;;;;;;10.45;100.00;101130.63;5035850;28;20207;-77
2022/04/15 03:15:18;;;;;;;0.20;0.20;;;;;;;10.46;100.00;101151.81;5035960;28;20238;-77
2022/04/15 03:17:47;;;;;;;0.75;0.63;;;;;;;10.52;100.00;101146.66;5039319;28;20238;-77
2022/04/15 03:20:15;;;;;;;0.20;0.20;;;;;;;10.55;100.00;101157.28;5036766;28;20226;-77
2022/04/15 03:22:44;;;;;;;0.20;0.20;;;10.70;99.90;;;10.80;100.00;101171.91;5038432;28;20214;-76
2022/04/15 03:25:17;;;;;;;0.13;0.13;;;10.80;99.90;;;11.02;100.00;101154.69;5040789;28;20231;-76
2022/04/15 03:27:46;;;;;;;0.20;0.20;;;;;;;11.17;100.00;101140.81;5029160;28;20206;-76
2022/04/15 03:30:14;;;;;;;0.10;0.10;;;;;;;11.12;100.00;101127.50;5038786;28;20219;-76
2022/04/15 03:32:50;;;;;;;0.10;0.10;;;10.90;99.90;;;11.24;100.00;101124.19;5013832;28;20225;-76
2022/04/15 03:35:23;;;;;;;0.20;0.20;;;11.00;99.90;;;11.21;100.00;101108.25;5042518;28;20217;-76
2022/04/15 03:37:52;;;;;;;0.10;0.10;;;11.00;99.90;;;11.08;100.00;101106.25;5040263;28;20202;-76
2022/04/15 03:40:20;;;;;;;0.20;0.20;;;;;;;11.10;100.00;101110.72;5037919;28;20560;-76
2022/04/15 03:42:51;;;;;;;0.10;0.10;;;11.00;99.90;;;11.13;100.00;101113.41;5040426;28;20208;-76
2022/04/15 03:45:22;;;;;;;0.10;0.10;;;;;;;11.08;100.00;101112.44;5038030;28;20238;-76
2022/04/15 03:47:57;;;;;;;0.20;0.20;;;10.90;99.90;;;11.06;100.00;101114.16;5040398;28;20199;-76
2022/04/15 03:50:26;;;;;;;0.10;0.10;;;;;;;11.23;100.00;101131.22;5041340;28;20222;-76
2022/04/15 03:52:54;;;;;;;0.10;0.10;;;;;;;11.16;100.00;101123.16;5043451;28;20198;-76
2022/04/15 03:55:24;;;;;;;0.10;0.10;;;11.00;99.90;;;11.14;100.00;101128.44;5040566;28;20241;-76
2022/04/15 03:57:53;;;;;;;0.20;0.20;;;;;;;11.08;100.00;101130.06;5041469;28;20211;-76
2022/04/15 04:00:23;;;;;;;0.10;0.10;;;11.00;99.90;;;11.12;100.00;101134.56;5040725;28;20222;-76
2022/04/15 04:02:53;;;;;;;0.25;0.25;;;11.00;99.90;;;11.07;100.00;101137.13;5039955;28;20214;-78
2022/04/15 04:05:23;;;;;;;0.20;0.20;;;10.90;99.90;;;11.16;100.00;101142.59;5044820;28;20226;-76
2022/04/15 04:07:51;;;;;;;0.10;0.10;;;;;;;11.20;100.00;101148.81;5043888;28;20214;-77
2022/04/15 04:10:20;;;;;;;0.40;0.40;;;;;;;11.19;100.00;101147.03;5042426;28;20215;-77
2022/04/15 04:12:48;;;;;;;0.10;0.10;;;;;;;11.18;100.00;101151.44;5041056;28;20207;-78
2022/04/15 04:15:17;;;;;;;0.10;0.10;;;;;;;11.17;100.00;101154.94;5047504;28;20202;-76
2022/04/15 04:17:46;;;;;;;0.17;0.17;;;;;;;11.12;100.00;101153.09;5046912;28;20217;-75
2022/04/15 04:20:16;;;;;;;0.20;0.20;;;;;;;11.14;100.00;101159.31;5046430;28;20289;-75
2022/04/15 04:22:44;;;;;;;0.17;0.17;;;;;;;11.11;100.00;101165.44;5041172;28;20211;-76
2022/04/15 04:25:13;;;;;;;0.10;0.10;;;;;;;11.08;100.00;101162.72;5042104;28;20210;-75
2022/04/15 04:27:42;;;;;;;0.10;0.10;;;11.00;99.90;;;11.06;100.00;101167.09;5044175;28;20686;-76
2022/04/15 04:30:13;;;;;;;0.10;0.10;;;11.00;99.90;;;10.96;100.00;101166.91;5048221;28;20315;-76
2022/04/15 04:32:49;;;;;;;0.30;0.30;;;10.90;99.90;;;10.95;100.00;101173.94;5047636;28;20581;-76
2022/04/15 04:35:20;;;;;;;0.10;0.10;;;10.90;99.90;;;10.85;100.00;101175.53;5051890;28;20203;-76
2022/04/15 04:37:49;;;;;;;0.10;0.10;;;;;;;10.76;100.00;101188.56;5036973;28;20203;-78
2022/04/15 04:40:18;;;;;;;0.10;0.10;;;10.80;99.90;;;10.62;100.00;101205.91;5037210;28;20713;-79
2022/04/15 04:42:47;;;;;;;0.20;0.20;;;10.70;99.90;;;10.16;100.00;101217.16;5030852;28;20199;-78
2022/04/15 04:45:15;;;;;;;0.13;0.13;;;;;;;10.01;100.00;101244.13;5026791;28;20206;-78
2022/04/15 04:47:46;;;;;;;0.10;0.10;;;10.30;99.90;;;9.91;100.00;101272.06;5030826;28;20199;-78
2022/04/15 04:50:14;;;;;;;0.10;0.10;;;;;;;10.03;100.00;101292.63;5032858;28;20231;-78
2022/04/15 04:52:43;;;;;;;0.10;0.10;;;;;;;10.08;100.00;101295.38;5043765;28;20202;-78
2022/04/15 04:55:11;;;;;;;0.10;0.10;;;;;;;10.09;100.00;101299.81;5044086;28;20199;-79
2022/04/15 04:57:42;;;;;;;0.10;0.10;;;;;;;10.26;100.00;101314.38;5036163;28;20234;-78
2022/04/15 05:00:12;;;;;;;0.43;0.43;;;10.30;99.90;;;10.32;100.00;101308.31;5044854;28;20226;-77
2022/04/15 05:02:41;;;;;;;0.10;0.10;;;10.40;99.90;;;10.51;100.00;101315.88;5040800;28;20207;-79
2022/04/15 05:05:10;;;;;;;0.10;0.10;;;;;;;10.59;100.00;101319.59;5053462;28;20218;-78
2022/04/15 05:07:38;;;;;;;0.20;0.20;;;;;;;10.56;100.00;101312.47;5037341;28;20610;-77
2022/04/15 05:10:09;;;;;;;0.30;0.30;;;10.50;99.90;;;10.52;100.00;101317.66;5045406;28;20233;-78
2022/04/15 05:12:37;;;;;;;0.20;0.20;;;;;;;10.49;100.00;101309.66;5025805;28;20201;-77
2022/04/15 05:15:05;;;;;;;0.10;0.10;;;10.80;99.90;;;10.51;100.00;101319.41;5040248;28;20210;-77
2022/04/15 05:17:34;;;;;;;0.10;0.10;;;;;;;10.50;100.00;101320.28;5028514;28;20207;-77
2022/04/15 05:20:08;;;;;;;0.20;0.20;;;;;;;10.48;100.00;101335.22;5049527;28;20214;-77
2022/04/15 05:22:37;;;;;;;0.20;0.20;;;;;;;10.54;100.00;101329.16;5035098;28;20201;-78
2022/04/15 05:25:05;;;;;;;0.10;0.10;;;;;;;10.58;100.00;101333.66;5026984;28;20203;-77
2022/04/15 05:27:34;;;;;;;0.10;0.10;;;;;;;10.61;100.00;101343.44;5039562;28;20329;-77
2022/04/15 05:30:02;;;;;;;0.43;0.43;;;;;;;10.59;100.00;101351.31;5038995;28;20226;-77
2022/04/15 05:32:30;;;;;;;0.20;0.20;;;;;;;10.63;100.00;101355.84;5032006;28;20199;-78
2022/04/15 05:34:59;;;;;;;0.10;0.10;;;;;;;10.70;100.00;101357.75;5045054;28;20203;-78
2022/04/15 05:37:27;;;;;;;0.17;0.17;;;;;;;10.65;100.00;101355.88;5041837;28;20199;-77
2022/04/15 05:39:55;;;;;;;0.10;0.10;;;;;;;10.71;100.00;101346.31;5040333;28;20231;-78
2022/04/15 05:42:43;;;;;;;0.65;0.60;;;10.70;99.90;;;10.73;100.00;101352.53;5026494;28;20222;-77
2022/04/15 05:45:23;;;;;;;0.10;0.10;;;;;;;10.82;100.00;101383.63;5049376;28;20210;-86
2022/04/15 05:47:53;;;;;;;0.10;0.10;;;;;;;10.88;100.00;101374.06;5057131;28;20227;-78
2022/04/15 05:50:21;;;;;;;0.20;0.20;;;;;;;10.93;100.00;101379.47;5038055;28;20222;-77
2022/04/15 05:52:49;;;;;;;0.20;0.20;;;;;;;10.99;100.00;101397.22;5034393;28;20207;-78
2022/04/15 05:55:18;;;;;;;0.10;0.10;;;;;;;11.03;100.00;101418.50;5052268;28;20643;-77
2022/04/15 05:57:46;;;;;;;0.10;0.10;;;;;;;11.12;100.00;101431.94;5045978;28;20218;-77
2022/04/15 06:00:14;;;;;;;0.10;0.10;;;;;;;11.23;100.00;101429.53;5038004;28;20222;-77
2022/04/15 06:02:42;;;;;;;0.20;0.20;;;;;;;11.41;100.00;101427.28;5032688;28;20210;-78
2022/04/15 06:05:11;;;;;;;0.10;0.10;;;;;;;11.54;100.00;101410.78;5051369;28;20207;-77
2022/04/15 06:07:39;;;;;;;0.17;0.17;;;;;;;11.54;100.00;101404.59;5039489;28;20238;-77
2022/04/15 06:10:07;;;;;;;0.10;0.10;;;11.30;99.90;;;11.60;100.00;101399.44;5040964;28;20583;-77
2022/04/15 06:15:31;;;;;;;0.10;0.10;;;11.40;99.90;;;11.64;100.00;101403.94;5070439;28;20202;-78
2022/04/15 06:18:03;;;;;;;0.17;0.17;;;11.40;99.90;;;11.63;100.00;101399.50;5057268;28;20585;-77
2022/04/15 06:20:31;;;;;;;0.35;0.35;;;;;;;11.74;100.00;101416.53;5033065;28;20226;-77
2022/04/15 06:22:59;;;;;;;0.10;0.10;;;;;;;11.84;100.00;101415.88;5042712;28;20214;-77
2022/04/15 06:25:28;;;;;;;0.10;0.10;;;;;;;11.99;100.00;101430.28;5049606;28;20207;-77
2022/04/15 06:27:56;;;;;;;0.10;0.10;;;;;;;12.12;100.00;101425.25;5062596;28;20253;-77
2022/04/15 06:30:24;;;;;;;0.10;0.10;;;11.80;99.90;;;12.30;100.00;101429.09;5036104;28;20574;-77
2022/04/15 06:32:53;;;;;;;0.20;0.20;;;;;;;12.53;100.00;101432.16;5033627;28;20583;-77
2022/04/15 06:35:21;;;;;;;0.10;0.10;;;;;;;12.67;100.00;101414.69;5042598;28;20553;-77
2022/04/15 06:37:50;;;;;;;0.10;0.10;;;;;;;12.80;100.00;101409.59;5058938;28;20205;-77
2022/04/15 06:40:18;;;;;;;0.10;0.10;;;;;;;12.97;100.00;101396.56;5019927;28;20230;-77
2022/04/15 06:42:46;;;;;;;0.10;0.10;;;;;;;13.15;100.00;101388.00;5042673;28;20234;-77
2022/04/15 06:45:14;;;;;;;0.47;0.47;;;;;;;13.32;100.00;101378.53;5034815;28;20229;-78
2022/04/15 06:47:43;;;;;;;0.10;0.10;;;;;;;13.48;100.00;101378.72;5046265;28;20234;-77
2022/04/15 06:50:11;;;;;;;0.10;0.10;;;;;;;13.67;100.00;101375.41;5041019;28;20219;-78
2022/04/15 06:52:39;;;;;;;0.10;0.10;;;;;;;13.77;100.00;101378.19;5032283;28;20226;-77
2022/04/15 06:55:07;;;;;;;0.00;0.00;;;13.30;99.90;;;13.81;100.00;101363.16;5046262;28;20207;-77
2022/04/15 06:57:35;;;;;;;0.10;0.10;;;13.40;99.90;;;13.97;100.00;101358.88;5038718;28;20222;-77
2022/04/15 07:00:05;;;;;;;0.10;0.10;;;13.60;99.90;;;14.01;100.00;101355.38;5029200;28;20226;-77
2022/04/15 07:02:34;;;;;;;0.10;0.10;;;;;;;14.14;100.00;101351.06;5029276;28;20210;-77
2022/04/15 07:05:09;;;;;;;0.10;0.10;;;13.80;99.90;;;14.27;100.00;101351.19;5033110;28;20204;-77
2022/04/15 07:07:38;;;;;;;4.53;0.90;;;;;;;14.44;100.00;101348.72;5043844;28;20242;-77
2022/04/15 07:10:10;;;;;;;0.10;0.10;;;14.20;99.90;;;14.48;100.00;101347.88;5033690;28;20234;-77
2022/04/15 07:12:39;;;;;;;0.10;0.10;;;14.20;99.90;;;14.68;100.00;101343.56;5044254;28;20203;-78
2022/04/15 07:15:08;;;;;;;0.20;0.20;;;14.30;99.90;;;14.62;100.00;101329.34;5045556;28;20209;-78
2022/04/15 07:17:37;;;;;;;0.10;0.10;;;;;;;14.67;100.00;101330.25;5039740;28;20213;-77
2022/04/15 07:20:06;;;;;;;0.10;0.10;;;;;;;14.56;100.00;101308.00;5051574;28;20598;-77
2022/04/15 07:22:34;;;;;;;0.30;0.30;;;;;;;14.66;100.00;101316.06;5038517;28;20565;-77
2022/04/15 07:25:03;;;;;;;0.10;0.10;;;;;;;14.87;100.00;101312.63;5038079;28;20217;-77
2022/04/15 07:27:31;;;;;;;0.10;0.10;;;;;;;14.80;100.00;101276.19;5045290;28;20232;-77
2022/04/15 07:29:59;;;;;;;0.10;0.10;;;;;;;14.96;100.00;101277.16;5017368;28;20231;-77
2022/04/15 07:32:29;;;;;;;0.10;0.10;;;;;;;15.01;100.00;101288.72;5041792;28;20202;-77
2022/04/15 07:34:57;;;;;;;0.10;0.10;;;;;;;15.14;100.00;101279.00;5044103;28;20204;-77
2022/04/15 07:37:25;;;;;;;0.10;0.10;;;;;;;15.29;100.00;101295.03;5016379;28;20207;-78
2022/04/15 07:39:53;;;;;;;0.10;0.10;;;;;;;15.32;100.00;101287.06;5042616;28;20222;-77
2022/04/15 07:42:21;;;;;;;0.10;0.10;;;;;;;15.44;100.00;101308.41;5042057;28;20203;-77
2022/04/15 07:44:49;;;;;;;0.20;0.20;;;;;;;15.40;100.00;101274.66;5040469;28;20203;-78
2022/04/15 07:47:18;;;;;;;0.17;0.17;;;;;;;15.49;100.00;101273.78;5029782;28;20591;-78
2022/04/15 07:50:05;;;;;;;0.10;0.10;;;;;;;15.37;100.00;101240.00;5041821;28;20223;-78
2022/04/15 07:52:35;;;;;;;0.10;0.10;;;;;;;15.47;100.00;101246.22;5045962;28;20210;-78
2022/04/15 07:55:03;;;;;;;0.10;0.10;;;;;;;15.50;100.00;101255.13;5045865;28;20210;-78
2022/04/15 07:57:34;;;;;;;0.10;0.10;;;;;;;15.61;100.00;101252.53;5032371;28;20690;-78
2022/04/15 08:00:03;;;;;;;0.10;0.10;;;;;;;15.60;100.00;101214.31;5047294;28;20234;-77
2022/04/15 08:02:38;;;;;;;0.10;0.10;;;;;;;15.79;100.00;101219.66;5039407;28;20207;-77
2022/04/15 08:05:07;;;;;;;0.38;0.38;;;;;;;15.80;100.00;101201.00;5033226;28;20214;-77
2022/04/15 08:07:35;;;;;;;0.10;0.10;;;;;;;15.89;100.00;101225.00;5039873;28;20235;-77
2022/04/15 08:10:04;;;;;;;0.10;0.10;;;;;;;15.80;100.00;101209.00;5034070;28;20230;-78
2022/04/15 08:12:32;;;;;;;0.10;0.10;;;;;;;16.25;100.00;101234.75;5030966;28;20210;-77
2022/04/15 08:15:01;;;;;;;0.10;0.10;;;;;;;16.07;100.00;101196.53;5032851;28;20200;-77
2022/04/15 08:17:29;;;;;;;0.10;0.10;;;;;;;16.17;100.00;101182.28;5044154;28;20217;-77
2022/04/15 08:19:58;;;;;;;0.20;0.20;;;;;;;16.20;100.00;101193.84;5053128;28;20227;-78
2022/04/15 08:22:27;;;;;;;0.38;0.38;;;;;;;16.21;100.00;101187.59;5036497;28;20202;-78
2022/04/15 08:24:56;;;;;;;0.20;0.20;;;;;;;16.22;100.00;101180.50;5024142;28;20210;-81
2022/04/15 08:27:25;;;;;;;0.10;0.10;;;;;;;16.62;100.00;101208.84;5042131;28;20230;-76
2022/04/15 08:29:54;;;;;;;0.20;0.20;;;;;;;16.86;100.00;101189.19;5043063;28;20227;-77
2022/04/15 08:32:22;;;;;;;0.10;0.10;;;;;;;16.49;100.00;101156.38;5032898;28;20210;-77
2022/04/15 08:34:50;;;;;;;0.05;0.05;;;;;;;16.58;100.00;101169.69;5043170;28;20199;-77
2022/04/15 08:37:19;;;;;;;0.00;0.00;;;;;;;16.50;100.00;101157.28;5027850;28;20219;-77
2022/04/15 08:39:47;;;;;;;0.20;0.20;;;;;;;16.99;100.00;101200.75;5030202;28;20223;-77
2022/04/15 08:42:19;;;;;;;0.10;0.10;;;16.90;99.90;;;17.03;99.96;101170.44;5045282;28;20218;-77
2022/04/15 08:44:51;;;;;;;1.02;0.70;;;17.00;99.90;;;16.96;97.81;101141.97;5039706;28;20684;-78
2022/04/15 08:47:20;;;;;;;0.10;0.10;;;17.10;99.90;;;17.22;96.16;101128.44;5038773;28;20211;-78
2022/04/15 08:49:49;;;;;;;0.10;0.10;;;;;;;17.17;96.43;101116.91;5045726;28;20230;-78
2022/04/15 08:52:18;;;;;;;0.15;0.15;;;17.00;99.90;;;16.90;97.77;101102.81;5039549;28;20210;-78
2022/04/15 08:54:46;;;;;;;0.10;0.10;;;;;;;17.15;99.25;101146.31;5039742;28;20207;-77
2022/04/15 08:57:14;;;;;;;0.13;0.13;;;;;;;17.26;96.78;101125.75;5034419;28;20210;-80
2022/04/15 08:59:46;;;;;;;0.20;0.20;;;17.30;99.90;;;17.39;97.54;101134.56;5041667;28;20233;-77
2022/04/15 09:02:37;;;;;;;0.10;0.10;;;17.40;99.90;;;17.69;98.21;101165.53;5043698;28;20214;-78
2022/04/15 09:05:13;;;;;;;0.22;0.22;;;16.80;99.90;;;17.46;95.49;101096.16;5047067;28;20214;-79
2022/04/15 09:07:42;;;;;;;0.10;0.10;;;17.70;99.90;;;17.84;94.42;101119.91;5041340;28;20231;-78
2022/04/15 09:10:11;;;;;;;0.03;0.03;;;;;;;17.58;92.17;101060.41;5046377;28;20237;-78
2022/04/15 09:12:41;;;;;;;0.10;0.10;;;17.80;99.90;;;17.90;90.72;101065.44;5038398;28;20211;-84
2022/04/15 09:15:12;;;;;;;0.00;0.00;;;17.90;99.90;;;17.83;89.35;101029.84;5044038;28;20209;-78
2022/04/15 09:17:49;;;;;;;0.10;0.10;;;18.10;99.90;;;17.84;85.77;100971.88;5036160;28;20240;-78
2022/04/15 09:20:18;;;;;;;0.00;0.00;;;;;;;18.11;85.65;100990.25;5034799;28;20244;-78
2022/04/15 09:22:47;;;;;;;0.75;0.75;;;;;;;17.98;85.43;100969.03;5039292;28;20211;-78
2022/04/15 09:25:16;;;;;;;0.10;0.10;;;;;;;18.04;85.04;100958.25;5041158;28;20202;-78
2022/04/15 09:27:44;;;;;;;0.40;0.40;;;;;;;18.12;83.52;100940.28;5044445;28;20209;-78
2022/04/15 09:30:12;;;;;;;0.00;0.00;;;;;;;17.88;81.63;100871.94;5052168;28;20226;-78
2022/04/15 09:32:41;;;;;;;0.00;0.00;;;;;;;18.16;82.75;100912.56;5037719;28;20603;-78
2022/04/15 09:35:16;;;;;;;0.52;0.52;;;18.40;99.90;;;18.30;83.04;100924.00;5046060;28;20216;-78
2022/04/15 09:37:44;;;;;;;0.10;0.10;;;;;;;18.23;81.66;100872.31;5054420;28;20210;-78
2022/04/15 09:40:26;;;;;;;0.00;0.00;;;18.50;99.90;;;18.59;82.46;100917.28;5040311;28;20692;-79
2022/04/15 09:42:56;;;;;;;0.00;0.00;;;18.60;99.90;;;18.09;80.69;100806.50;5033936;28;20210;-78
2022/04/15 09:45:33;;;;;;;0.20;0.20;;;18.60;99.90;;;18.35;80.96;100849.81;5065850;28;20210;-78
2022/04/15 09:48:08;;;;;;;0.10;0.10;;;18.70;99.90;;;18.54;79.81;100853.97;5041385;28;20235;-79
2022/04/15 09:50:43;;;;;;;0.10;0.10;;;18.90;99.90;;;18.82;78.87;100861.56;5038745;28;20217;-79
2022/04/15 09:53:15;;;;;;;0.00;0.00;;;19.00;99.90;;;18.86;82.21;100893.63;5050933;28;20554;-79
2022/04/15 09:55:50;;;;;;;0.00;0.00;;;19.10;99.90;;;18.76;80.79;100862.56;5033326;28;20243;-79
2022/04/15 09:58:28;;;;;;;0.10;0.10;;;19.20;99.90;;;18.90;78.59;100835.50;5052170;28;20218;-79
2022/04/15 10:01:02;;;;;;;0.00;0.00;;;19.20;99.90;;;18.74;76.99;100773.28;5064394;28;20218;-79
2022/04/15 10:03:35;;;;;;;0.45;0.45;;;19.20;99.90;;;18.99;78.12;100819.25;5039790;28;20214;-79
2022/04/15 10:06:08;;;;;;;0.10;0.10;;;;;;;19.03;79.59;100826.31;5053234;28;20210;-79
2022/04/15 10:08:57;;;;;;;0.00;0.00;;;;;;;19.02;80.05;100827.22;5016253;28;20242;-79
2022/04/15 10:11:25;;;;;;;0.15;0.15;;;;;;;19.03;79.46;100812.91;5030290;28;20215;-79
2022/04/15 10:13:55;;;;;;;0.10;0.10;;;19.30;99.90;;;19.05;80.79;100813.75;5057251;28;20210;-79
2022/04/15 10:16:24;;;;;;;0.17;0.17;;;;;;;19.26;79.13;100816.94;5040218;28;20205;-79
2022/04/15 10:18:53;;;;;;;0.00;0.00;;;;;;;19.41;80.37;100835.38;5029118;28;20237;-79
2022/04/15 10:21:21;;;;;;;0.08;0.08;;;;;;;19.35;78.95;100795.28;5035477;28;20199;-79
2022/04/15 10:23:49;;;;;;;0.10;0.10;;;;;;;19.59;79.77;100818.97;5038689;28;20292;-79
2022/04/15 10:26:18;;;;;;;0.00;0.00;;;20.00;99.90;;;19.79;81.13;100846.25;5032477;28;20207;-79
2022/04/15 10:28:47;;;;;;;0.10;0.10;;;20.10;99.90;;;19.66;74.28;100736.53;5051329;28;20734;-79
2022/04/15 10:31:16;;;;;;;0.00;0.00;;;19.80;99.90;;;19.00;71.30;100581.59;5033825;28;20203;-78
2022/04/15 10:33:51;;;;;;;0.10;0.10;;;;;;;19.25;72.73;100631.03;5048546;28;20229;-79
2022/04/15 10:36:23;;;;;;;0.10;0.10;;;19.70;99.90;;;19.70;72.19;100671.13;5045389;28;20244;-79
2022/04/15 10:39:03;;;;;;;0.10;0.10;;;20.00;99.90;;;19.89;71.95;100685.88;5039426;28;20702;-78
2022/04/15 10:41:44;;;;;;;0.00;0.00;;;20.20;99.90;;;19.99;74.49;100695.44;5035629;28;20211;-79
2022/04/15 10:44:26;;;;;;;0.75;0.75;;;20.30;99.90;;;19.76;73.76;100645.03;5041849;28;20589;-79
2022/04/15 10:47:13;;;;;;;0.00;0.00;;;20.20;99.90;;;19.71;75.24;100665.75;5043806;28;20207;-79
2022/04/15 10:49:58;;;;;;;0.05;0.05;;;20.00;99.90;;;19.42;72.80;100583.22;5047332;28;20241;-79
2022/04/15 10:52:28;;;;;;;0.00;0.00;;;;;;;19.88;73.53;100651.91;5046017;28;20207;-79
2022/04/15 10:55:13;;;;;;;0.00;0.00;;;20.20;99.90;;;19.40;71.44;100534.13;5039909;28;20203;-79
2022/04/15 10:57:47;;;;;;;0.00;0.00;;;20.10;99.90;;;20.24;72.67;100662.59;5043376;28;20222;-78
2022/04/15 11:03:24;;;;;;;0.05;0.05;;;20.90;99.90;;;20.61;72.71;100660.66;5060300;28;20290;-78
2022/04/15 11:06:02;;;;;;;0.00;0.00;;;21.10;99.90;;;20.40;71.55;100588.75;5042946;28;20207;-79
2022/04/15 11:08:51;;;;;;;0.00;0.00;;;;;;;19.63;68.64;100438.81;5037505;28;20242;-78
2022/04/15 11:11:33;;;;;;;0.00;0.00;;;20.20;99.90;;;20.00;71.35;100537.94;5039445;28;20572;-80
2022/04/15 11:14:04;;;;;;;0.10;0.10;;;20.60;99.90;;;20.84;70.97;100637.66;5042901;28;20215;-79